ADDS - METARS form results

Aviation Digital Data Service (ADDS)

Output produced by METARs form (0204 UTC 18 November 2019)
found at http://aviationweather.gov/metar/data/
 
METAR text: KC09 180155Z AUTO 18004KT 3SM -RA BKN012 BKN022 OVC038 03/03 A2986 RMK AO2 P0001 T00280026
Conditions at: KC09 (MORRIS-WASHBURN , IL, US) observed 0155 UTC 18 November 2019
Temperature: 2.8°C (37°F)
Dewpoint: 2.6°C (37°F) [RH = 99%]
Pressure (altimeter): 29.86 inches Hg (1011.3 mb)
Winds: from the S (180 degrees) at 5 MPH (4 knots; 2.1 m/s)
Visibility: 3 miles ( 5 km)
Ceiling: 1200 feet AGL
Clouds: broken clouds at 1200 feet AGL
broken clouds at 2200 feet AGL
overcast cloud deck at 3800 feet AGL
Weather: -RA  (light rain)

METAR text: KC09 180135Z AUTO 19004KT 4SM RA SCT022 SCT035 OVC041 03/03 A2986 RMK AO2 P0001 T00300025
Conditions at: KC09 (MORRIS-WASHBURN , IL, US) observed 0135 UTC 18 November 2019
Temperature: 3.0°C (37°F)
Dewpoint: 2.5°C (36°F) [RH = 97%]
Pressure (altimeter): 29.86 inches Hg (1011.3 mb)
Winds: from the S (190 degrees) at 5 MPH (4 knots; 2.1 m/s)
Visibility: 4 miles ( 6 km)
Ceiling: 4100 feet AGL
Clouds: scattered clouds at 2200 feet AGL
scattered clouds at 3500 feet AGL
overcast cloud deck at 4100 feet AGL
Weather: RA  (moderate rain)

METAR text: KC09 180115Z AUTO 16005KT 4SM RA SCT016 SCT026 OVC035 03/02 A2987 RMK AO2 T00300022
Conditions at: KC09 (MORRIS-WASHBURN , IL, US) observed 0115 UTC 18 November 2019
Temperature: 3.0°C (37°F)
Dewpoint: 2.2°C (36°F) [RH = 94%]
Pressure (altimeter): 29.87 inches Hg (1011.6 mb)
Winds: from the SSE (160 degrees) at 6 MPH (5 knots; 2.6 m/s)
Visibility: 4 miles ( 6 km)
Ceiling: 3500 feet AGL
Clouds: scattered clouds at 1600 feet AGL
scattered clouds at 2600 feet AGL
overcast cloud deck at 3500 feet AGL
Weather: RA  (moderate rain)